createdAt,value
2022-08-25T00:01:02.604Z,13.60
2022-08-25T00:03:39.551Z,13.48
2022-08-25T00:06:13.890Z,14.23
2022-08-25T00:08:48.907Z,14.00
2022-08-25T00:11:25.161Z,14.38
2022-08-25T00:14:02.065Z,15.45
2022-08-25T00:16:35.858Z,14.07
2022-08-25T00:19:12.880Z,14.80
2022-08-25T00:21:47.711Z,13.90
2022-08-25T00:24:24.012Z,13.18
2022-08-25T00:27:00.363Z,11.68
2022-08-25T00:29:38.165Z,10.13
2022-08-25T00:32:11.645Z,8.77
2022-08-25T00:34:45.373Z,9.90
2022-08-25T00:37:18.737Z,9.43
2022-08-25T00:39:55.206Z,8.13
2022-08-25T00:42:28.734Z,9.32
2022-08-25T00:45:02.343Z,8.00
2022-08-25T00:47:36.691Z,8.85
2022-08-25T00:50:11.494Z,7.75
2022-08-25T00:52:47.999Z,7.38
2022-08-25T00:55:27.354Z,7.75
2022-08-25T00:58:07.009Z,6.68
2022-08-25T01:00:43.613Z,6.32
2022-08-25T01:03:19.230Z,7.93
2022-08-25T01:05:53.186Z,6.57
2022-08-25T01:08:29.373Z,7.68
2022-08-25T01:11:10.317Z,7.55
2022-08-25T01:13:46.853Z,7.32
2022-08-25T01:16:20.474Z,7.13
2022-08-25T01:18:56.701Z,7.07
2022-08-25T01:21:38.384Z,6.88
2022-08-25T01:24:17.168Z,7.40
2022-08-25T01:26:50.821Z,5.45
2022-08-25T01:29:25.622Z,5.50
2022-08-25T01:32:03.312Z,6.43
2022-08-25T01:34:43.412Z,6.85
2022-08-25T01:37:19.395Z,6.97
2022-08-25T01:39:52.820Z,5.97
2022-08-25T01:42:38.782Z,6.85
2022-08-25T01:45:12.326Z,6.28
2022-08-25T01:47:45.816Z,6.63
2022-08-25T01:50:19.624Z,7.70
2022-08-25T01:52:59.620Z,7.00
2022-08-25T01:55:51.559Z,7.07
2022-08-25T01:58:27.167Z,6.75
2022-08-25T02:01:03.293Z,7.07
2022-08-25T02:03:42.118Z,7.10
2022-08-25T02:06:18.084Z,6.82
2022-08-25T02:08:54.253Z,8.15
2022-08-25T02:11:27.911Z,6.95
2022-08-25T02:14:01.300Z,8.38
2022-08-25T02:16:37.592Z,8.65
2022-08-25T02:19:12.577Z,7.70
2022-08-25T02:21:46.004Z,7.95
2022-08-25T02:24:21.076Z,8.35
2022-08-25T02:26:54.663Z,7.60
2022-08-25T02:29:28.202Z,8.02
2022-08-25T02:32:01.863Z,7.93
2022-08-25T02:34:35.517Z,8.23
2022-08-25T02:37:09.591Z,8.07
2022-08-25T02:39:44.420Z,8.52
2022-08-25T02:42:18.053Z,7.18
2022-08-25T02:44:52.172Z,7.97
2022-08-25T02:47:27.213Z,7.13
2022-08-25T02:50:00.698Z,7.22
2022-08-25T02:52:35.464Z,7.18
2022-08-25T02:55:14.384Z,8.57
2022-08-25T02:57:48.379Z,7.07
2022-08-25T03:00:22.382Z,6.03
2022-08-25T03:02:56.764Z,6.65
2022-08-25T03:05:30.194Z,7.00
2022-08-25T03:08:04.185Z,7.43
2022-08-25T03:10:39.581Z,6.97
2022-08-25T03:13:13.121Z,6.53
2022-08-25T03:15:46.663Z,7.60
2022-08-25T03:18:23.767Z,7.78
2022-08-25T03:20:58.172Z,7.30
2022-08-25T03:23:31.603Z,7.70
2022-08-25T03:26:24.542Z,8.10
2022-08-25T03:28:58.253Z,7.30
2022-08-25T03:31:32.389Z,7.32
2022-08-25T03:34:06.586Z,7.53
2022-08-25T03:36:40.738Z,8.05
2022-08-25T03:39:14.418Z,8.20
2022-08-25T03:41:49.589Z,8.27
2022-08-25T03:44:23.342Z,8.27
2022-08-25T03:46:56.839Z,7.88
2022-08-25T03:49:31.539Z,9.65
2022-08-25T03:52:07.059Z,8.50
2022-08-25T03:54:40.540Z,7.43
2022-08-25T03:57:15.436Z,8.60
2022-08-25T03:59:48.812Z,8.27
2022-08-25T04:02:22.478Z,9.02
2022-08-25T04:04:55.937Z,8.02
2022-08-25T04:07:30.122Z,9.02
2022-08-25T04:10:03.836Z,9.52
2022-08-25T04:12:38.892Z,7.63
2022-08-25T04:15:13.028Z,8.15
2022-08-25T04:17:46.457Z,7.38
2022-08-25T04:20:20.285Z,8.40
2022-08-25T04:22:53.733Z,7.53
2022-08-25T04:25:27.341Z,8.20
2022-08-25T04:28:02.290Z,8.43
2022-08-25T04:30:36.034Z,9.88
2022-08-25T04:33:13.239Z,8.40
2022-08-25T04:35:50.172Z,9.75
2022-08-25T04:38:23.670Z,9.32
2022-08-25T04:40:58.488Z,10.32
2022-08-25T04:43:34.455Z,10.43
2022-08-25T04:46:09.411Z,10.60
2022-08-25T04:48:43.633Z,10.52
2022-08-25T04:51:19.113Z,11.32
2022-08-25T04:53:53.013Z,10.55
2022-08-25T04:56:26.359Z,9.15
2022-08-25T04:59:04.734Z,9.05
2022-08-25T05:01:38.865Z,10.80
2022-08-25T05:04:27.753Z,8.75
2022-08-25T05:07:02.622Z,9.65
2022-08-25T05:09:36.638Z,12.45
2022-08-25T05:12:10.618Z,11.60
2022-08-25T05:14:48.486Z,9.85
2022-08-25T05:17:22.558Z,10.13
2022-08-25T05:19:56.002Z,10.23
2022-08-25T05:22:29.484Z,9.00
2022-08-25T05:25:03.574Z,8.40
2022-08-25T05:27:36.947Z,8.55
2022-08-25T05:30:13.390Z,7.38
2022-08-25T05:32:46.804Z,7.57
2022-08-25T05:35:20.695Z,8.38
2022-08-25T05:37:54.225Z,8.70
2022-08-25T05:40:28.486Z,8.77
2022-08-25T05:43:01.986Z,7.60
2022-08-25T05:45:37.350Z,8.57
2022-08-25T05:48:10.850Z,8.13
2022-08-25T05:50:51.724Z,9.23
2022-08-25T05:53:26.344Z,10.82
2022-08-25T05:56:01.206Z,11.50
2022-08-25T05:58:34.648Z,12.20
2022-08-25T06:01:27.028Z,10.25
2022-08-25T06:04:00.496Z,9.38
2022-08-25T06:06:34.422Z,10.30
2022-08-25T06:09:08.850Z,10.35
2022-08-25T06:11:43.084Z,9.15
2022-08-25T06:14:17.366Z,9.10
2022-08-25T06:16:52.763Z,9.07
2022-08-25T06:19:27.091Z,9.48
2022-08-25T06:22:00.556Z,10.20
2022-08-25T06:24:34.534Z,9.27
2022-08-25T06:27:11.081Z,8.35
2022-08-25T06:29:45.847Z,7.53
2022-08-25T06:32:20.928Z,7.93
2022-08-25T06:34:54.534Z,8.32
2022-08-25T06:37:27.978Z,8.27
2022-08-25T06:40:01.353Z,8.02
2022-08-25T06:42:35.129Z,7.28
2022-08-25T06:45:09.366Z,7.40
2022-08-25T06:47:45.612Z,7.35
2022-08-25T06:50:19.227Z,8.63
2022-08-25T06:52:53.009Z,8.30
2022-08-25T06:55:26.531Z,8.27
2022-08-25T06:57:59.971Z,8.45
2022-08-25T07:00:34.680Z,8.00
2022-08-25T07:03:09.515Z,7.65
2022-08-25T07:05:52.454Z,8.73
2022-08-25T07:08:26.698Z,8.35
2022-08-25T07:11:05.591Z,9.45
2022-08-25T07:13:40.109Z,7.28
2022-08-25T07:16:15.543Z,8.45
2022-08-25T07:18:50.858Z,8.40
2022-08-25T07:21:26.361Z,8.25
2022-08-25T07:24:03.520Z,7.78
2022-08-25T07:26:38.934Z,7.55
2022-08-25T07:29:14.874Z,6.65
2022-08-25T07:31:48.858Z,7.32
2022-08-25T07:34:40.843Z,8.48
2022-08-25T07:37:27.532Z,7.55
2022-08-25T07:40:13.903Z,7.10
2022-08-25T07:42:50.073Z,7.88
2022-08-25T07:45:30.511Z,7.68
2022-08-25T07:48:06.540Z,8.15
2022-08-25T07:50:44.133Z,7.05
2022-08-25T07:53:18.894Z,6.70
2022-08-25T07:55:53.649Z,6.22
2022-08-25T07:58:27.224Z,6.32
2022-08-25T08:01:00.629Z,6.85
2022-08-25T08:03:50.279Z,7.63
2022-08-25T08:06:26.766Z,6.65
2022-08-25T08:09:00.471Z,7.03
2022-08-25T08:11:37.246Z,8.25
2022-08-25T08:14:11.289Z,7.13
2022-08-25T08:16:44.789Z,7.43
2022-08-25T08:19:18.393Z,6.15
2022-08-25T08:21:57.905Z,7.28
2022-08-25T08:24:44.638Z,6.40
2022-08-25T08:27:25.655Z,6.28
2022-08-25T08:29:59.043Z,7.20
2022-08-25T08:32:46.424Z,6.15
2022-08-25T08:35:25.855Z,6.13
2022-08-25T08:38:00.657Z,6.35
2022-08-25T08:41:06.642Z,6.43
2022-08-25T08:43:41.817Z,6.57
2022-08-25T08:46:15.553Z,6.05
2022-08-25T08:49:01.333Z,5.95
2022-08-25T08:51:43.177Z,7.00
2022-08-25T08:54:25.146Z,6.25
2022-08-25T08:57:06.426Z,5.38
2022-08-25T08:59:49.115Z,6.65
2022-08-25T09:02:38.652Z,6.05
2022-08-25T09:05:16.871Z,5.03
2022-08-25T09:07:54.685Z,5.63
2022-08-25T09:10:40.565Z,5.50
2022-08-25T09:13:20.366Z,4.97
2022-08-25T09:16:34.037Z,4.60
2022-08-25T09:19:24.106Z,3.97
2022-08-25T09:22:03.059Z,4.88
2022-08-25T09:25:07.933Z,4.30
2022-08-25T09:27:55.973Z,4.80
2022-08-25T09:30:33.188Z,5.30
2022-08-25T09:33:07.127Z,4.25
2022-08-25T09:35:42.986Z,4.88
2022-08-25T09:38:16.371Z,4.10
2022-08-25T09:40:52.689Z,4.95
2022-08-25T09:43:33.571Z,4.47
2022-08-25T09:46:13.475Z,4.25
2022-08-25T09:48:55.969Z,4.35
2022-08-25T09:51:38.202Z,4.18
2022-08-25T09:54:25.446Z,3.88
2022-08-25T09:57:08.725Z,3.45
2022-08-25T09:59:57.599Z,4.47
2022-08-25T10:02:32.856Z,4.30
2022-08-25T10:05:24.294Z,3.80
2022-08-25T10:08:00.206Z,5.47
2022-08-25T10:10:36.208Z,4.40
2022-08-25T10:13:15.912Z,3.88
2022-08-25T10:16:20.383Z,4.35
2022-08-25T10:19:07.819Z,5.53
2022-08-25T10:21:43.697Z,3.83
2022-08-25T10:24:18.056Z,3.78
2022-08-25T10:26:59.966Z,4.15
2022-08-25T10:29:53.032Z,4.32
2022-08-25T10:32:40.287Z,4.65
2022-08-25T10:35:18.069Z,4.75
2022-08-25T10:38:04.337Z,4.70
2022-08-25T10:40:43.773Z,5.32
2022-08-25T10:43:30.322Z,4.20
2022-08-25T10:46:14.514Z,4.43
2022-08-25T10:49:06.208Z,3.95
2022-08-25T10:51:57.163Z,4.90
2022-08-25T10:54:43.325Z,4.47
2022-08-25T10:57:24.126Z,4.00
2022-08-25T11:00:07.338Z,4.28
2022-08-25T11:03:19.190Z,4.88
2022-08-25T11:05:57.465Z,5.07
2022-08-25T11:08:36.827Z,4.35
2022-08-25T11:11:21.677Z,4.30
2022-08-25T11:14:00.151Z,5.45
2022-08-25T11:16:39.430Z,4.68
2022-08-25T11:19:20.252Z,4.40
2022-08-25T11:22:06.416Z,4.80
2022-08-25T11:24:54.173Z,4.93
2022-08-25T11:27:36.421Z,4.47
2022-08-25T11:30:12.612Z,4.60
2022-08-25T11:32:49.149Z,4.38
2022-08-25T11:35:30.072Z,4.47
2022-08-25T11:38:27.301Z,5.13
2022-08-25T11:41:11.988Z,5.03
2022-08-25T11:44:01.525Z,4.30
2022-08-25T11:46:50.449Z,4.28
2022-08-25T11:49:52.217Z,5.03
2022-08-25T11:52:47.193Z,4.90
2022-08-25T11:55:26.805Z,6.45
2022-08-25T11:58:24.131Z,4.70
2022-08-25T12:01:01.573Z,4.13
2022-08-25T12:03:52.358Z,4.30
2022-08-25T12:06:30.677Z,5.45
2022-08-25T12:09:22.987Z,4.00
2022-08-25T12:11:59.347Z,4.43
2022-08-25T12:14:48.058Z,4.20
2022-08-25T12:17:29.670Z,4.30
2022-08-25T12:20:03.125Z,4.30
2022-08-25T12:22:57.016Z,4.18
2022-08-25T12:25:39.860Z,4.07
2022-08-25T12:28:38.171Z,5.28
2022-08-25T12:31:24.451Z,4.47
2022-08-25T12:34:12.517Z,3.63
2022-08-25T12:36:59.084Z,4.00
2022-08-25T12:39:36.876Z,4.18
2022-08-25T12:42:26.063Z,4.63
2022-08-25T12:45:33.990Z,4.15
2022-08-25T12:48:40.691Z,4.80
2022-08-25T12:51:20.600Z,4.88
2022-08-25T12:53:57.387Z,4.70
2022-08-25T12:56:39.234Z,4.25
2022-08-25T12:59:18.312Z,4.43
2022-08-25T13:02:14.315Z,4.20
2022-08-25T13:05:06.006Z,4.60
2022-08-25T13:08:02.353Z,4.20
2022-08-25T13:10:46.560Z,3.95
2022-08-25T13:13:38.103Z,4.95
2022-08-25T13:16:19.783Z,5.00
2022-08-25T13:18:59.074Z,5.63
2022-08-25T13:21:37.562Z,5.35
2022-08-25T13:24:16.028Z,5.20
2022-08-25T13:26:56.062Z,4.00
2022-08-25T13:29:36.902Z,4.47
2022-08-25T13:32:14.789Z,4.75
2022-08-25T13:34:52.630Z,5.00
2022-08-25T13:37:29.674Z,5.40
2022-08-25T13:40:12.852Z,6.03
2022-08-25T13:42:55.619Z,5.68
2022-08-25T13:45:34.739Z,5.88
2022-08-25T13:48:32.222Z,4.80
2022-08-25T13:51:19.459Z,5.28
2022-08-25T13:53:58.627Z,6.15
2022-08-25T13:56:40.696Z,5.18
2022-08-25T13:59:23.188Z,6.53
2022-08-25T14:04:33.532Z,5.47
2022-08-25T14:07:19.443Z,5.40
2022-08-25T14:09:56.982Z,5.45
2022-08-25T14:12:37.416Z,5.47
2022-08-25T14:15:14.823Z,5.70
2022-08-25T14:18:01.328Z,4.75
2022-08-25T14:20:36.744Z,5.47
2022-08-25T14:23:18.861Z,4.97
2022-08-25T14:25:53.755Z,5.75
2022-08-25T14:28:29.237Z,4.88
2022-08-25T14:31:08.665Z,5.13
2022-08-25T14:33:45.563Z,5.05
2022-08-25T14:36:23.579Z,4.72
2022-08-25T14:38:58.507Z,5.47
2022-08-25T14:41:36.409Z,5.70
2022-08-25T14:44:11.187Z,5.03
2022-08-25T14:46:47.184Z,4.82
2022-08-25T14:49:27.023Z,5.28
2022-08-25T14:52:09.428Z,5.00
2022-08-25T14:54:44.902Z,4.65
2022-08-25T14:57:20.300Z,5.20
2022-08-25T14:59:54.967Z,6.28
2022-08-25T15:02:30.629Z,6.47
2022-08-25T15:05:08.647Z,5.32
2022-08-25T15:07:59.345Z,6.10
2022-08-25T15:10:34.168Z,6.07
2022-08-25T15:13:07.588Z,4.93
2022-08-25T15:15:52.762Z,6.28
2022-08-25T15:18:26.936Z,5.82
2022-08-25T15:21:00.352Z,7.07
2022-08-25T15:23:35.465Z,7.10
2022-08-25T15:26:13.601Z,5.88
2022-08-25T15:28:49.870Z,6.15
2022-08-25T15:31:24.465Z,6.15
2022-08-25T15:34:00.515Z,5.72
2022-08-25T15:36:34.925Z,5.35
2022-08-25T15:39:09.206Z,5.57
2022-08-25T15:41:44.862Z,5.85
2022-08-25T15:44:18.273Z,5.60
2022-08-25T15:46:51.809Z,4.63
2022-08-25T15:49:25.500Z,5.63
2022-08-25T15:51:59.012Z,5.60
2022-08-25T15:54:33.264Z,4.15
2022-08-25T15:57:09.156Z,5.43
2022-08-25T15:59:43.498Z,5.55
2022-08-25T16:02:18.196Z,5.30
2022-08-25T16:04:53.081Z,4.50
2022-08-25T16:07:26.411Z,5.65
2022-08-25T16:10:00.485Z,4.68
2022-08-25T16:12:35.573Z,6.38
2022-08-25T16:15:12.017Z,5.20
2022-08-25T16:17:50.591Z,4.45
2022-08-25T16:20:24.701Z,4.38
2022-08-25T16:23:00.570Z,4.82
2022-08-25T16:25:36.268Z,5.10
2022-08-25T16:28:12.419Z,4.63
2022-08-25T16:30:52.776Z,4.28
2022-08-25T16:33:26.672Z,5.28
2022-08-25T16:36:07.116Z,4.50
2022-08-25T16:38:42.329Z,5.00
2022-08-25T16:41:31.254Z,5.20
2022-08-25T16:44:11.067Z,4.43
2022-08-25T16:46:45.140Z,4.93
2022-08-25T16:49:20.919Z,4.90
2022-08-25T16:51:58.271Z,5.30
2022-08-25T16:54:49.157Z,5.57
2022-08-25T16:57:22.531Z,4.30
2022-08-25T16:59:57.333Z,5.20
2022-08-25T17:02:31.490Z,4.63
2022-08-25T17:05:07.428Z,4.25
2022-08-25T17:07:41.138Z,4.25
2022-08-25T17:10:14.564Z,5.63
2022-08-25T17:12:47.945Z,4.32
2022-08-25T17:15:24.031Z,5.25
2022-08-25T17:17:57.497Z,5.22
2022-08-25T17:20:30.965Z,4.97
2022-08-25T17:23:12.410Z,5.40
2022-08-25T17:25:46.474Z,4.78
2022-08-25T17:28:20.276Z,5.75
2022-08-25T17:30:56.332Z,5.50
2022-08-25T17:33:29.921Z,6.38
2022-08-25T17:36:07.124Z,7.30
2022-08-25T17:38:41.297Z,7.00
2022-08-25T17:41:15.314Z,6.75
2022-08-25T17:43:48.816Z,6.60
2022-08-25T17:46:24.100Z,7.10
2022-08-25T17:48:57.976Z,6.13
2022-08-25T17:51:32.056Z,5.82
2022-08-25T17:54:05.834Z,4.50
2022-08-25T17:56:39.407Z,6.35
2022-08-25T17:59:13.391Z,7.15
2022-08-25T18:01:50.110Z,5.82
2022-08-25T18:04:29.719Z,6.57
2022-08-25T18:07:03.523Z,7.80
2022-08-25T18:09:36.913Z,8.02
2022-08-25T18:12:10.796Z,10.00
2022-08-25T18:14:46.020Z,10.13
2022-08-25T18:17:22.067Z,9.73
2022-08-25T18:19:56.477Z,9.30
2022-08-25T18:22:30.152Z,8.63
2022-08-25T18:25:06.879Z,8.48
2022-08-25T18:27:40.923Z,7.85
2022-08-25T18:30:14.539Z,6.72
2022-08-25T18:32:50.405Z,6.40
2022-08-25T18:35:26.754Z,7.13
2022-08-25T18:38:17.656Z,6.55
2022-08-25T18:40:59.749Z,6.65
2022-08-25T18:43:35.111Z,6.38
2022-08-25T18:46:08.680Z,7.13
2022-08-25T18:48:45.683Z,7.47
2022-08-25T18:51:19.529Z,12.20
2022-08-25T18:53:59.104Z,7.85
2022-08-25T18:56:35.820Z,7.20
2022-08-25T18:59:09.424Z,6.30
2022-08-25T19:01:44.719Z,7.47
2022-08-25T19:04:20.424Z,7.95
2022-08-25T19:07:01.994Z,7.97
2022-08-25T19:09:36.766Z,6.97
2022-08-25T19:12:11.842Z,7.55
2022-08-25T19:14:55.896Z,8.27
2022-08-25T19:17:29.320Z,7.78
2022-08-25T19:20:12.608Z,7.53
2022-08-25T19:22:46.216Z,10.02
2022-08-25T19:25:20.991Z,10.85
2022-08-25T19:27:55.378Z,10.63
2022-08-25T19:30:30.787Z,11.10
2022-08-25T19:33:11.489Z,10.48
2022-08-25T19:35:49.507Z,10.98
2022-08-25T19:38:35.208Z,11.65
2022-08-25T19:41:14.275Z,9.32
2022-08-25T19:43:56.197Z,10.15
2022-08-25T19:46:35.679Z,9.85
2022-08-25T19:49:14.425Z,9.93
2022-08-25T19:51:52.391Z,10.18
2022-08-25T19:54:28.246Z,9.23
2022-08-25T19:57:03.437Z,8.30
2022-08-25T19:59:42.600Z,7.90
2022-08-25T20:02:18.872Z,6.97
2022-08-25T20:04:54.481Z,7.43
2022-08-25T20:07:31.514Z,7.05
2022-08-25T20:10:07.356Z,8.30
2022-08-25T20:12:40.973Z,6.38
2022-08-25T20:15:16.841Z,6.88
2022-08-25T20:17:50.695Z,6.68
2022-08-25T20:20:32.265Z,5.95
2022-08-25T20:23:23.110Z,5.47
2022-08-25T20:25:56.536Z,6.72
2022-08-25T20:28:29.952Z,5.97
2022-08-25T20:31:03.475Z,5.97
2022-08-25T20:33:37.130Z,6.10
2022-08-25T20:36:10.552Z,5.05
2022-08-25T20:38:45.642Z,5.35
2022-08-25T20:41:19.233Z,5.43
2022-08-25T20:43:52.615Z,5.78
2022-08-25T20:46:26.704Z,5.97
2022-08-25T20:49:00.120Z,6.00
2022-08-25T20:51:36.436Z,5.32
2022-08-25T20:54:15.414Z,4.95
2022-08-25T20:56:49.246Z,5.30
2022-08-25T20:59:24.836Z,5.63
2022-08-25T21:01:58.487Z,5.03
2022-08-25T21:04:32.256Z,4.82
2022-08-25T21:07:06.068Z,5.78
2022-08-25T21:09:40.912Z,5.93
2022-08-25T21:12:14.666Z,5.07
2022-08-25T21:14:48.592Z,4.55
2022-08-25T21:17:21.996Z,5.10
2022-08-25T21:19:55.706Z,4.50
2022-08-25T21:22:29.363Z,4.53
2022-08-25T21:25:05.661Z,5.40
2022-08-25T21:27:40.034Z,5.43
2022-08-25T21:30:16.905Z,5.43
2022-08-25T21:32:53.816Z,5.35
2022-08-25T21:35:40.904Z,5.03
2022-08-25T21:38:16.538Z,5.60
2022-08-25T21:40:51.520Z,4.45
2022-08-25T21:43:25.177Z,5.43
2022-08-25T21:45:58.805Z,5.32
2022-08-25T21:48:32.462Z,4.88
2022-08-25T21:51:07.201Z,4.05
2022-08-25T21:53:42.936Z,5.32
2022-08-25T21:56:22.427Z,4.35
2022-08-25T21:58:59.759Z,4.38
2022-08-25T22:01:34.910Z,4.35
2022-08-25T22:04:12.134Z,4.35
2022-08-25T22:06:45.669Z,4.55
2022-08-25T22:09:20.262Z,4.53
2022-08-25T22:11:55.715Z,4.03
2022-08-25T22:14:29.440Z,4.25
2022-08-25T22:17:02.877Z,4.95
2022-08-25T22:19:36.490Z,5.53
2022-08-25T22:22:09.863Z,5.10
2022-08-25T22:24:43.873Z,4.57
2022-08-25T22:27:18.717Z,4.82
2022-08-25T22:29:52.868Z,4.57
2022-08-25T22:32:26.216Z,3.92
2022-08-25T22:34:59.821Z,4.32
2022-08-25T22:37:34.147Z,4.00
2022-08-25T22:40:09.939Z,4.38
2022-08-25T22:42:47.937Z,4.43
2022-08-25T22:45:22.437Z,4.28
2022-08-25T22:47:57.025Z,4.03
2022-08-25T22:50:31.503Z,4.65
2022-08-25T22:53:05.411Z,4.38
2022-08-25T22:55:44.309Z,4.85
2022-08-25T22:58:19.065Z,4.72
2022-08-25T23:00:52.584Z,3.72
2022-08-25T23:03:27.312Z,4.57
2022-08-25T23:06:00.896Z,4.20
2022-08-25T23:08:40.719Z,5.25
2022-08-25T23:11:16.262Z,4.50
2022-08-25T23:13:51.778Z,4.30
2022-08-25T23:16:25.475Z,4.53
2022-08-25T23:19:00.092Z,3.88
2022-08-25T23:21:50.766Z,4.65
2022-08-25T23:24:29.342Z,4.53
2022-08-25T23:27:05.264Z,4.50
2022-08-25T23:29:42.738Z,4.03
2022-08-25T23:32:17.157Z,4.85
2022-08-25T23:34:52.015Z,4.55
2022-08-25T23:37:25.401Z,4.60
2022-08-25T23:40:00.248Z,4.50
2022-08-25T23:42:33.940Z,4.50
2022-08-25T23:45:09.728Z,4.10
2022-08-25T23:47:44.638Z,3.83
2022-08-25T23:50:18.483Z,5.10
2022-08-25T23:52:52.789Z,4.30
2022-08-25T23:55:29.538Z,3.95
2022-08-25T23:58:06.054Z,3.65
